createdAt,value
2023-01-29T00:02:09.382Z,99.90
2023-01-29T00:04:35.917Z,99.90
2023-01-29T00:07:02.431Z,99.90
2023-01-29T00:09:29.034Z,99.90
2023-01-29T00:11:55.633Z,99.90
2023-01-29T00:14:22.171Z,99.90
2023-01-29T00:16:48.838Z,99.90
2023-01-29T00:19:15.427Z,99.90
2023-01-29T00:21:41.924Z,99.90
2023-01-29T00:24:08.698Z,99.90
2023-01-29T00:26:35.235Z,99.90
2023-01-29T00:29:02.541Z,99.90
2023-01-29T00:31:29.379Z,99.90
2023-01-29T00:33:56.067Z,99.90
2023-01-29T00:36:23.281Z,99.90
2023-01-29T00:38:59.328Z,99.90
2023-01-29T00:41:49.687Z,99.90
2023-01-29T00:44:35.361Z,99.90
2023-01-29T00:47:02.588Z,99.90
2023-01-29T00:49:30.264Z,99.90
2023-01-29T00:52:23.268Z,99.90
2023-01-29T00:54:50.341Z,99.90
2023-01-29T00:57:16.916Z,99.90
2023-01-29T00:59:43.487Z,99.90
2023-01-29T01:02:28.505Z,99.90
2023-01-29T01:04:55.023Z,99.90
2023-01-29T01:07:21.809Z,99.90
2023-01-29T01:10:06.895Z,99.90
2023-01-29T01:12:33.475Z,99.90
2023-01-29T01:14:59.983Z,99.90
2023-01-29T01:17:26.548Z,99.90
2023-01-29T01:19:53.146Z,99.90
2023-01-29T01:22:20.023Z,99.90
2023-01-29T01:24:46.663Z,99.90
2023-01-29T01:27:13.810Z,99.90
2023-01-29T01:29:40.940Z,99.90
2023-01-29T01:32:07.545Z,99.90
2023-01-29T01:34:34.133Z,99.90
2023-01-29T01:37:00.638Z,99.90
2023-01-29T01:39:27.536Z,99.90
2023-01-29T01:41:54.237Z,99.90
2023-01-29T01:45:15.078Z,99.90
2023-01-29T01:47:46.680Z,99.90
2023-01-29T01:50:22.482Z,99.90
2023-01-29T01:52:55.771Z,99.90
2023-01-29T01:55:27.521Z,99.90
2023-01-29T01:58:01.584Z,99.90
2023-01-29T02:00:28.254Z,99.90
2023-01-29T02:03:13.990Z,99.90
2023-01-29T02:05:59.912Z,99.90
2023-01-29T02:08:57.529Z,99.90
2023-01-29T02:11:24.544Z,99.90
2023-01-29T02:13:53.421Z,99.90
2023-01-29T02:16:21.658Z,99.90
2023-01-29T02:18:48.895Z,99.90
2023-01-29T02:21:40.759Z,99.90
2023-01-29T02:24:27.496Z,99.90
2023-01-29T02:27:03.665Z,99.90
2023-01-29T02:30:03.702Z,99.90
2023-01-29T02:32:54.065Z,99.90
2023-01-29T02:35:34.518Z,99.90
2023-01-29T02:38:21.581Z,99.90
2023-01-29T02:40:56.037Z,99.90
2023-01-29T02:43:44.527Z,99.90
2023-01-29T02:46:29.439Z,99.90
2023-01-29T02:49:01.802Z,99.90
2023-01-29T02:52:00.103Z,99.90
2023-01-29T02:54:43.957Z,99.90
2023-01-29T02:57:30.042Z,99.90
2023-01-29T03:00:10.369Z,99.90
2023-01-29T03:02:37.022Z,99.90
2023-01-29T03:05:10.319Z,99.90
2023-01-29T03:07:45.885Z,99.90
2023-01-29T03:10:39.311Z,99.90
2023-01-29T03:13:14.487Z,99.90
2023-01-29T03:15:46.855Z,99.90
2023-01-29T03:18:17.982Z,99.90
2023-01-29T03:20:51.756Z,99.90
2023-01-29T03:23:50.425Z,99.90
2023-01-29T03:26:38.440Z,99.90
2023-01-29T03:29:25.298Z,99.90
2023-01-29T03:32:09.101Z,99.90
2023-01-29T03:34:43.596Z,99.90
2023-01-29T03:37:36.923Z,99.90
2023-01-29T03:40:05.268Z,99.90
2023-01-29T03:42:42.238Z,99.90
2023-01-29T03:45:36.152Z,99.90
2023-01-29T03:48:05.819Z,99.90
2023-01-29T03:50:36.817Z,99.90
2023-01-29T03:53:21.468Z,99.90
2023-01-29T03:55:55.332Z,99.90
2023-01-29T03:58:46.734Z,99.90
2023-01-29T04:01:38.965Z,99.90
2023-01-29T04:04:17.015Z,99.90
2023-01-29T04:06:46.989Z,99.90
2023-01-29T04:09:22.036Z,99.90
2023-01-29T04:12:10.827Z,99.90
2023-01-29T04:14:38.716Z,99.90
2023-01-29T04:17:13.825Z,99.90
2023-01-29T04:19:40.738Z,99.90
2023-01-29T04:22:19.352Z,99.90
2023-01-29T04:24:47.836Z,99.90
2023-01-29T04:27:28.722Z,99.90
2023-01-29T04:29:59.842Z,99.90
2023-01-29T04:32:32.559Z,99.90
2023-01-29T04:35:22.141Z,99.90
2023-01-29T04:38:31.880Z,99.90
2023-01-29T04:41:30.645Z,99.90
2023-01-29T04:44:15.744Z,99.90
2023-01-29T04:47:35.636Z,99.90
2023-01-29T04:50:21.075Z,99.90
2023-01-29T04:52:56.456Z,99.90
2023-01-29T04:55:43.224Z,99.90
2023-01-29T04:58:17.692Z,99.90
2023-01-29T05:00:46.744Z,99.90
2023-01-29T05:03:15.210Z,99.90
2023-01-29T05:05:45.218Z,99.90
2023-01-29T05:08:14.782Z,99.90
2023-01-29T05:10:42.472Z,99.90
2023-01-29T05:13:13.502Z,99.90
2023-01-29T05:15:45.244Z,99.90
2023-01-29T05:18:11.955Z,99.90
2023-01-29T05:20:41.301Z,99.90
2023-01-29T05:23:20.778Z,99.90
2023-01-29T05:25:49.542Z,99.90
2023-01-29T05:28:16.560Z,99.90
2023-01-29T05:30:48.548Z,99.90
2023-01-29T05:33:22.109Z,99.90
2023-01-29T05:35:49.914Z,99.90
2023-01-29T05:38:17.734Z,99.90
2023-01-29T05:40:44.813Z,99.90
2023-01-29T05:43:19.632Z,99.90
2023-01-29T05:45:57.610Z,99.90
2023-01-29T05:48:25.024Z,99.90
2023-01-29T05:50:51.866Z,99.90
2023-01-29T05:53:18.402Z,99.90
2023-01-29T05:55:46.274Z,99.90
2023-01-29T05:58:13.645Z,99.90
2023-01-29T06:00:41.390Z,99.90
2023-01-29T06:03:08.084Z,99.90
2023-01-29T06:05:38.516Z,99.90
2023-01-29T06:08:05.803Z,99.90
2023-01-29T06:10:32.674Z,99.90
2023-01-29T06:12:59.368Z,99.90
2023-01-29T06:15:26.416Z,99.90
2023-01-29T06:17:57.258Z,99.90
2023-01-29T06:20:24.516Z,99.90
2023-01-29T06:22:51.067Z,99.90
2023-01-29T06:25:17.700Z,99.90
2023-01-29T06:27:44.245Z,99.90
2023-01-29T06:30:11.320Z,99.90
2023-01-29T06:32:37.942Z,99.90
2023-01-29T06:35:04.896Z,99.90
2023-01-29T06:37:31.445Z,99.90
2023-01-29T06:39:58.020Z,99.90
2023-01-29T06:42:27.765Z,99.90
2023-01-29T06:44:55.430Z,99.90
2023-01-29T06:47:22.572Z,99.90
2023-01-29T06:49:49.767Z,99.90
2023-01-29T06:52:16.487Z,99.90
2023-01-29T06:54:43.035Z,99.90
2023-01-29T06:57:09.613Z,99.90
2023-01-29T06:59:36.168Z,99.90
2023-01-29T07:02:04.161Z,99.90
2023-01-29T07:04:30.847Z,99.90
2023-01-29T07:06:59.498Z,99.90
2023-01-29T07:09:26.008Z,99.90
2023-01-29T07:11:52.573Z,99.90
2023-01-29T07:14:19.107Z,99.90
2023-01-29T07:16:45.765Z,99.90
2023-01-29T07:19:12.492Z,99.90
2023-01-29T07:21:39.003Z,99.90
2023-01-29T07:24:05.754Z,99.90
2023-01-29T07:26:32.399Z,99.90
2023-01-29T07:28:58.905Z,99.90
2023-01-29T07:31:25.592Z,99.90
2023-01-29T07:33:52.268Z,99.90
2023-01-29T07:36:18.881Z,99.90
2023-01-29T07:38:49.894Z,99.90
2023-01-29T07:41:16.711Z,99.90
2023-01-29T07:43:43.375Z,99.90
2023-01-29T07:46:10.061Z,99.90
2023-01-29T07:48:37.012Z,99.90
2023-01-29T07:51:03.681Z,99.90
2023-01-29T07:53:30.352Z,99.90
2023-01-29T07:55:57.296Z,99.90
2023-01-29T07:58:23.953Z,99.90
2023-01-29T08:00:50.722Z,99.90
2023-01-29T08:03:21.789Z,99.90
2023-01-29T08:05:48.732Z,99.90
2023-01-29T08:08:15.548Z,99.90
2023-01-29T08:10:42.478Z,99.90
2023-01-29T08:13:09.603Z,99.90
2023-01-29T08:18:23.151Z,99.90
2023-01-29T08:20:49.703Z,99.90
2023-01-29T08:23:16.574Z,99.90
2023-01-29T08:25:43.841Z,99.90
2023-01-29T08:28:11.668Z,99.90
2023-01-29T08:30:38.833Z,99.90
2023-01-29T08:33:05.472Z,99.90
2023-01-29T08:35:32.365Z,99.90
2023-01-29T08:38:01.572Z,99.90
2023-01-29T08:40:28.800Z,99.90
2023-01-29T08:43:03.587Z,99.90
2023-01-29T08:45:34.486Z,99.90
2023-01-29T08:48:01.087Z,99.90
2023-01-29T08:50:27.687Z,99.90
2023-01-29T08:52:58.896Z,99.90
2023-01-29T08:55:26.361Z,99.90
2023-01-29T08:57:53.362Z,99.90
2023-01-29T09:00:20.361Z,99.90
2023-01-29T09:02:46.924Z,99.90
2023-01-29T09:05:13.587Z,99.90
2023-01-29T09:07:40.412Z,99.90
2023-01-29T09:10:07.978Z,99.90
2023-01-29T09:12:34.629Z,99.90
2023-01-29T09:15:01.105Z,99.90
2023-01-29T09:17:27.692Z,99.90
2023-01-29T09:19:54.339Z,99.90
2023-01-29T09:22:20.923Z,99.90
2023-01-29T09:24:47.624Z,99.90
2023-01-29T09:27:14.133Z,99.90
2023-01-29T09:29:40.712Z,99.90
2023-01-29T09:32:07.339Z,99.90
2023-01-29T09:34:34.354Z,99.90
2023-01-29T09:37:01.263Z,99.90
2023-01-29T09:39:27.904Z,99.90
2023-01-29T09:42:07.557Z,99.90
2023-01-29T09:44:53.047Z,99.90
2023-01-29T09:47:21.190Z,99.90
2023-01-29T09:49:53.545Z,99.90
2023-01-29T09:52:22.062Z,99.90
2023-01-29T09:55:20.542Z,99.90
2023-01-29T09:57:54.555Z,99.90
2023-01-29T10:00:57.026Z,99.90
2023-01-29T10:03:36.138Z,99.90
2023-01-29T10:06:19.003Z,99.90
2023-01-29T10:09:13.649Z,99.90
2023-01-29T10:12:11.267Z,99.90
2023-01-29T10:15:15.310Z,99.90
2023-01-29T10:17:58.781Z,99.90
2023-01-29T10:20:48.800Z,99.90
2023-01-29T10:23:28.128Z,99.90
2023-01-29T10:25:55.055Z,99.90
2023-01-29T10:28:35.123Z,99.90
2023-01-29T10:31:08.714Z,99.90
2023-01-29T10:34:01.445Z,99.90
2023-01-29T10:36:35.927Z,99.90
2023-01-29T10:39:02.749Z,99.90
2023-01-29T10:42:07.255Z,99.90
2023-01-29T10:44:57.857Z,99.90
2023-01-29T10:48:00.233Z,99.90
2023-01-29T10:50:39.484Z,99.90
2023-01-29T10:53:27.311Z,99.80
2023-01-29T10:56:21.985Z,99.40
2023-01-29T10:58:53.847Z,99.50
2023-01-29T11:01:20.477Z,99.90
2023-01-29T11:04:00.835Z,99.90
2023-01-29T11:06:33.323Z,99.90
2023-01-29T11:09:09.692Z,99.90
2023-01-29T11:11:57.514Z,99.90
2023-01-29T11:14:35.073Z,99.90
2023-01-29T11:17:01.771Z,99.50
2023-01-29T11:19:44.672Z,99.30
2023-01-29T11:22:15.860Z,99.40
2023-01-29T11:24:43.245Z,99.90
2023-01-29T11:27:23.633Z,99.90
2023-01-29T11:29:50.413Z,99.90
2023-01-29T11:32:22.594Z,99.90
2023-01-29T11:35:08.787Z,99.90
2023-01-29T11:37:40.942Z,99.90
2023-01-29T11:40:19.972Z,99.90
2023-01-29T11:42:48.055Z,99.90
2023-01-29T11:45:20.626Z,99.90
2023-01-29T11:47:54.637Z,99.90
2023-01-29T11:50:33.042Z,99.90
2023-01-29T11:53:01.181Z,99.90
2023-01-29T11:55:48.275Z,99.60
2023-01-29T11:58:18.656Z,99.80
2023-01-29T12:00:52.065Z,98.60
2023-01-29T12:03:25.191Z,98.40
2023-01-29T12:06:06.167Z,98.10
2023-01-29T12:08:38.578Z,98.90
2023-01-29T12:11:09.779Z,99.60
2023-01-29T12:13:36.780Z,99.90
2023-01-29T12:16:29.332Z,99.90
2023-01-29T12:19:34.472Z,99.90
2023-01-29T12:22:21.015Z,99.90
2023-01-29T12:24:54.323Z,99.90
2023-01-29T12:27:48.038Z,99.90
2023-01-29T12:30:48.380Z,99.90
2023-01-29T12:33:29.059Z,99.90
2023-01-29T12:36:23.892Z,99.90
2023-01-29T12:38:50.559Z,99.90
2023-01-29T12:41:32.544Z,99.90
2023-01-29T12:44:10.670Z,99.90
2023-01-29T12:46:44.456Z,99.90
2023-01-29T12:49:18.189Z,99.90
2023-01-29T12:52:13.294Z,99.90
2023-01-29T12:55:03.332Z,99.90
2023-01-29T12:57:58.427Z,99.90
2023-01-29T13:00:46.650Z,99.90
2023-01-29T13:03:21.287Z,99.90
2023-01-29T13:05:58.532Z,99.90
2023-01-29T13:08:32.472Z,99.90
2023-01-29T13:11:06.621Z,99.90
2023-01-29T13:14:01.144Z,99.90
2023-01-29T13:16:40.540Z,99.90
2023-01-29T13:19:21.863Z,99.90
2023-01-29T13:21:48.843Z,99.90
2023-01-29T13:24:18.583Z,99.90
2023-01-29T13:26:46.880Z,99.90
2023-01-29T13:29:28.831Z,99.90
2023-01-29T13:31:58.615Z,99.90
2023-01-29T13:34:32.392Z,99.90
2023-01-29T13:37:02.681Z,99.90
2023-01-29T13:39:31.901Z,99.90
2023-01-29T13:41:59.716Z,99.90
2023-01-29T13:44:39.179Z,99.90
2023-01-29T13:47:11.545Z,99.90
2023-01-29T13:49:45.529Z,99.90
2023-01-29T13:52:17.230Z,99.90
2023-01-29T13:54:52.116Z,99.90
2023-01-29T13:57:44.744Z,99.90
2023-01-29T14:00:16.942Z,99.90
2023-01-29T14:02:43.535Z,99.90
2023-01-29T14:05:31.819Z,99.90
2023-01-29T14:07:59.252Z,99.90
2023-01-29T14:10:28.758Z,99.90
2023-01-29T14:13:18.123Z,99.90
2023-01-29T14:15:46.453Z,99.90
2023-01-29T14:18:21.536Z,99.90
2023-01-29T14:20:48.056Z,99.90
2023-01-29T14:23:36.487Z,99.90
2023-01-29T14:26:06.375Z,99.90
2023-01-29T14:28:34.751Z,99.90
2023-01-29T14:31:02.637Z,99.90
2023-01-29T14:33:33.946Z,99.90
2023-01-29T14:36:10.819Z,99.90
2023-01-29T14:38:38.678Z,99.90
2023-01-29T14:41:30.528Z,99.90
2023-01-29T14:44:34.913Z,99.90
2023-01-29T14:47:01.418Z,99.90
2023-01-29T14:49:50.871Z,99.90
2023-01-29T14:52:20.744Z,99.90
2023-01-29T14:54:48.341Z,99.90
2023-01-29T14:57:17.882Z,99.90
2023-01-29T15:00:14.993Z,99.90
2023-01-29T15:02:44.688Z,99.90
2023-01-29T15:05:19.450Z,99.90
2023-01-29T15:07:54.938Z,99.90
2023-01-29T15:10:38.073Z,99.90
2023-01-29T15:13:33.570Z,99.90
2023-01-29T15:16:10.941Z,99.90
2023-01-29T15:18:40.021Z,99.90
2023-01-29T15:21:15.580Z,99.90
2023-01-29T15:23:44.129Z,99.90
2023-01-29T15:26:24.768Z,99.90
2023-01-29T15:29:04.183Z,99.90
2023-01-29T15:31:32.034Z,99.90
2023-01-29T15:34:04.722Z,99.90
2023-01-29T15:36:32.344Z,99.90
2023-01-29T15:39:19.354Z,99.90
2023-01-29T15:41:46.267Z,99.90
2023-01-29T15:44:16.584Z,99.90
2023-01-29T15:46:48.021Z,99.90
2023-01-29T15:49:36.216Z,99.90
2023-01-29T15:52:13.556Z,99.90
2023-01-29T15:54:40.442Z,99.90
2023-01-29T15:57:24.024Z,99.90
2023-01-29T15:59:54.193Z,99.90
2023-01-29T16:02:29.292Z,99.90
2023-01-29T16:04:56.124Z,99.90
2023-01-29T16:07:22.868Z,99.90
2023-01-29T16:09:50.936Z,99.90
2023-01-29T16:12:18.052Z,99.90
2023-01-29T16:14:45.351Z,99.90
2023-01-29T16:17:35.224Z,99.90
2023-01-29T16:20:05.237Z,99.90
2023-01-29T16:22:37.367Z,99.90
2023-01-29T16:25:06.967Z,99.90
2023-01-29T16:27:34.636Z,99.90
2023-01-29T16:30:02.099Z,99.90
2023-01-29T16:32:30.181Z,99.90
2023-01-29T16:34:59.609Z,99.90
2023-01-29T16:37:30.261Z,99.90
2023-01-29T16:39:57.736Z,99.90
2023-01-29T16:42:29.424Z,99.90
2023-01-29T16:45:01.410Z,99.90
2023-01-29T16:47:41.065Z,99.90
2023-01-29T16:50:35.939Z,99.90
2023-01-29T16:53:10.781Z,99.90
2023-01-29T16:55:40.928Z,99.90
2023-01-29T16:58:17.946Z,99.90
2023-01-29T17:00:50.992Z,99.90
2023-01-29T17:03:18.743Z,99.90
2023-01-29T17:05:46.404Z,99.90
2023-01-29T17:08:31.828Z,99.90
2023-01-29T17:10:58.966Z,99.90
2023-01-29T17:13:43.880Z,99.90
2023-01-29T17:16:25.665Z,99.90
2023-01-29T17:18:52.701Z,99.90
2023-01-29T17:21:19.463Z,99.90
2023-01-29T17:23:46.134Z,99.90
2023-01-29T17:26:14.238Z,99.90
2023-01-29T17:28:41.316Z,99.90
2023-01-29T17:31:08.446Z,99.90
2023-01-29T17:33:37.503Z,99.90
2023-01-29T17:36:04.412Z,99.90
2023-01-29T17:38:31.076Z,99.90
2023-01-29T17:41:21.645Z,99.90
2023-01-29T17:43:48.551Z,99.90
2023-01-29T17:46:17.108Z,99.90
2023-01-29T17:48:44.554Z,99.90
2023-01-29T17:51:14.609Z,99.90
2023-01-29T17:53:46.012Z,99.90
2023-01-29T17:56:24.051Z,99.90
2023-01-29T17:58:50.570Z,99.90
2023-01-29T18:01:17.113Z,99.90
2023-01-29T18:03:43.854Z,99.90
2023-01-29T18:06:16.957Z,99.90
2023-01-29T18:08:43.514Z,99.90
2023-01-29T18:11:12.425Z,99.90
2023-01-29T18:13:41.695Z,99.90
2023-01-29T18:16:08.397Z,99.90
2023-01-29T18:18:35.517Z,99.90
2023-01-29T18:21:02.222Z,99.90
2023-01-29T18:23:31.633Z,99.90
2023-01-29T18:25:58.345Z,99.90
2023-01-29T18:28:25.946Z,99.90
2023-01-29T18:30:52.658Z,99.90
2023-01-29T18:33:19.425Z,99.90
2023-01-29T18:35:49.920Z,99.90
2023-01-29T18:38:17.548Z,99.90
2023-01-29T18:40:44.163Z,99.90
2023-01-29T18:43:10.714Z,99.90
2023-01-29T18:45:37.409Z,99.90
2023-01-29T18:48:04.969Z,99.90
2023-01-29T18:50:31.500Z,99.90
2023-01-29T18:52:58.049Z,99.90
2023-01-29T18:55:26.484Z,99.90
2023-01-29T18:58:26.638Z,99.90
2023-01-29T19:00:43.684Z,99.90
2023-01-29T19:03:10.810Z,99.90
2023-01-29T19:05:37.479Z,99.90
2023-01-29T19:08:05.245Z,99.90
2023-01-29T19:10:32.373Z,99.90
2023-01-29T19:12:58.897Z,99.90
2023-01-29T19:15:25.592Z,99.90
2023-01-29T19:17:52.881Z,99.90
2023-01-29T19:20:19.479Z,99.90
2023-01-29T19:22:46.070Z,99.90
2023-01-29T19:25:12.768Z,99.90
2023-01-29T19:27:39.625Z,99.90
2023-01-29T19:30:07.523Z,99.90
2023-01-29T19:32:34.494Z,99.90
2023-01-29T19:35:01.128Z,99.90
2023-01-29T19:37:27.979Z,99.90
2023-01-29T19:39:54.590Z,99.90
2023-01-29T19:42:21.343Z,99.90
2023-01-29T19:44:48.086Z,99.90
2023-01-29T19:47:14.907Z,99.90
2023-01-29T19:49:41.714Z,99.90
2023-01-29T19:52:33.517Z,99.90
2023-01-29T19:55:06.241Z,99.90
2023-01-29T19:57:34.180Z,99.90
2023-01-29T20:00:01.352Z,99.90
2023-01-29T20:02:28.510Z,99.90
2023-01-29T20:04:55.433Z,99.90
2023-01-29T20:07:22.748Z,99.90
2023-01-29T20:09:50.895Z,99.90
2023-01-29T20:12:18.437Z,99.90
2023-01-29T20:14:52.068Z,99.90
2023-01-29T20:17:18.758Z,99.90
2023-01-29T20:19:45.483Z,99.90
2023-01-29T20:22:13.673Z,99.90
2023-01-29T20:24:42.411Z,99.90
2023-01-29T20:27:10.636Z,99.90
2023-01-29T20:29:39.062Z,99.90
2023-01-29T20:32:07.928Z,99.90
2023-01-29T20:34:35.213Z,99.90
2023-01-29T20:37:01.839Z,99.90
2023-01-29T20:39:28.688Z,99.90
2023-01-29T20:41:57.112Z,99.90
2023-01-29T20:44:24.743Z,99.90
2023-01-29T20:46:51.862Z,99.90
2023-01-29T20:49:19.102Z,99.90
2023-01-29T20:51:45.955Z,99.90
2023-01-29T20:54:12.687Z,99.90
2023-01-29T20:56:42.235Z,99.90
2023-01-29T20:59:09.701Z,99.90
2023-01-29T21:01:36.556Z,99.90
2023-01-29T21:04:03.318Z,99.90
2023-01-29T21:06:30.030Z,99.90
2023-01-29T21:08:56.638Z,99.90
2023-01-29T21:11:23.215Z,99.90
2023-01-29T21:13:53.047Z,99.90
2023-01-29T21:16:19.670Z,99.90
2023-01-29T21:18:46.371Z,99.90
2023-01-29T21:21:13.012Z,99.90
2023-01-29T21:23:39.656Z,99.90
2023-01-29T21:26:07.286Z,99.90
2023-01-29T21:28:34.349Z,99.90
2023-01-29T21:31:05.806Z,99.90
2023-01-29T21:33:33.573Z,99.90
2023-01-29T21:36:00.506Z,99.90
2023-01-29T21:38:27.375Z,99.90
2023-01-29T21:40:59.779Z,99.90
2023-01-29T21:43:26.444Z,99.90
2023-01-29T21:46:02.316Z,99.90
2023-01-29T21:48:28.948Z,99.90
2023-01-29T21:50:55.475Z,99.90
2023-01-29T21:53:22.734Z,99.90
2023-01-29T21:55:49.254Z,99.90
2023-01-29T21:58:15.815Z,99.90
2023-01-29T22:00:42.292Z,99.90
2023-01-29T22:03:08.971Z,99.90
2023-01-29T22:05:35.615Z,99.90
2023-01-29T22:08:02.371Z,99.90
2023-01-29T22:10:30.594Z,99.90
2023-01-29T22:12:59.034Z,99.90
2023-01-29T22:15:25.689Z,99.90
2023-01-29T22:17:52.383Z,99.90
2023-01-29T22:20:19.778Z,99.90
2023-01-29T22:22:46.479Z,99.90
2023-01-29T22:25:13.081Z,99.90
2023-01-29T22:27:39.576Z,99.90
2023-01-29T22:30:07.197Z,99.90
2023-01-29T22:32:33.917Z,99.90
2023-01-29T22:35:00.600Z,99.90
2023-01-29T22:37:27.352Z,99.90
2023-01-29T22:39:53.923Z,99.90
2023-01-29T22:42:20.868Z,99.90
2023-01-29T22:44:48.384Z,99.90
2023-01-29T22:47:15.215Z,99.90
2023-01-29T22:49:41.707Z,99.90
2023-01-29T22:52:11.342Z,99.90
2023-01-29T22:54:39.681Z,99.90
2023-01-29T22:57:07.996Z,99.90
2023-01-29T22:59:34.564Z,99.90
2023-01-29T23:02:02.222Z,99.90
2023-01-29T23:04:28.932Z,99.90
2023-01-29T23:06:55.531Z,99.90
2023-01-29T23:09:22.190Z,99.90
2023-01-29T23:11:48.780Z,99.90
2023-01-29T23:14:15.463Z,99.90
2023-01-29T23:16:42.057Z,99.90
2023-01-29T23:19:10.181Z,99.90
2023-01-29T23:21:36.792Z,99.90
2023-01-29T23:24:03.808Z,99.90
2023-01-29T23:26:48.933Z,99.90
2023-01-29T23:29:15.707Z,99.90
2023-01-29T23:31:42.339Z,99.90
2023-01-29T23:34:08.937Z,99.90
2023-01-29T23:36:35.681Z,99.90
2023-01-29T23:39:02.262Z,99.90
2023-01-29T23:41:28.785Z,99.90
2023-01-29T23:43:55.297Z,99.90
2023-01-29T23:46:21.846Z,99.90
2023-01-29T23:48:48.393Z,99.90
2023-01-29T23:51:14.944Z,99.90
2023-01-29T23:53:41.514Z,99.90
2023-01-29T23:56:08.105Z,99.90
2023-01-29T23:58:34.921Z,99.90
